sensor_id;sensor_type;location;lat;lon;timestamp;temperature;humidity
58447;DHT22;44240;51.840;7.258;2024-02-21T00:00:16;10.70;79.40
58447;DHT22;44240;51.840;7.258;2024-02-21T00:02:43;10.80;79.60
58447;DHT22;44240;51.840;7.258;2024-02-21T00:05:11;10.80;79.50
58447;DHT22;44240;51.840;7.258;2024-02-21T00:07:38;10.80;79.50
58447;DHT22;44240;51.840;7.258;2024-02-21T00:10:05;10.70;79.50
58447;DHT22;44240;51.840;7.258;2024-02-21T00:12:32;10.70;79.40
58447;DHT22;44240;51.840;7.258;2024-02-21T00:14:59;10.70;79.50
58447;DHT22;44240;51.840;7.258;2024-02-21T00:17:26;10.80;79.70
58447;DHT22;44240;51.840;7.258;2024-02-21T00:19:53;10.80;79.60
58447;DHT22;44240;51.840;7.258;2024-02-21T00:22:20;10.70;79.60
58447;DHT22;44240;51.840;7.258;2024-02-21T00:24:47;10.70;79.50
58447;DHT22;44240;51.840;7.258;2024-02-21T00:27:13;10.80;79.60
58447;DHT22;44240;51.840;7.258;2024-02-21T00:29:40;10.70;79.50
58447;DHT22;44240;51.840;7.258;2024-02-21T00:32:07;10.70;79.70
58447;DHT22;44240;51.840;7.258;2024-02-21T00:34:34;10.70;79.70
58447;DHT22;44240;51.840;7.258;2024-02-21T00:37:02;10.70;79.80
58447;DHT22;44240;51.840;7.258;2024-02-21T00:39:29;10.70;79.70
58447;DHT22;44240;51.840;7.258;2024-02-21T00:41:56;10.70;79.70
58447;DHT22;44240;51.840;7.258;2024-02-21T00:44:22;10.70;79.80
58447;DHT22;44240;51.840;7.258;2024-02-21T00:46:49;10.70;79.70
58447;DHT22;44240;51.840;7.258;2024-02-21T00:49:16;10.70;79.70
58447;DHT22;44240;51.840;7.258;2024-02-21T00:51:43;10.70;79.80
58447;DHT22;44240;51.840;7.258;2024-02-21T00:54:10;10.70;79.80
58447;DHT22;44240;51.840;7.258;2024-02-21T00:56:37;10.70;79.80
58447;DHT22;44240;51.840;7.258;2024-02-21T00:59:03;10.70;79.80
58447;DHT22;44240;51.840;7.258;2024-02-21T01:01:30;10.70;79.90
58447;DHT22;44240;51.840;7.258;2024-02-21T01:03:57;10.70;79.90
58447;DHT22;44240;51.840;7.258;2024-02-21T01:06:24;10.70;80.00
58447;DHT22;44240;51.840;7.258;2024-02-21T01:08:51;10.70;79.80
58447;DHT22;44240;51.840;7.258;2024-02-21T01:11:18;10.70;79.90
58447;DHT22;44240;51.840;7.258;2024-02-21T01:13:45;10.70;80.00
58447;DHT22;44240;51.840;7.258;2024-02-21T01:16:12;10.70;79.90
58447;DHT22;44240;51.840;7.258;2024-02-21T01:18:39;10.70;79.90
58447;DHT22;44240;51.840;7.258;2024-02-21T01:21:07;10.80;80.00
58447;DHT22;44240;51.840;7.258;2024-02-21T01:23:35;10.70;79.80
58447;DHT22;44240;51.840;7.258;2024-02-21T01:26:03;10.80;79.80
58447;DHT22;44240;51.840;7.258;2024-02-21T01:28:30;10.80;79.70
58447;DHT22;44240;51.840;7.258;2024-02-21T01:30:57;10.80;79.70
58447;DHT22;44240;51.840;7.258;2024-02-21T01:33:24;10.80;79.80
58447;DHT22;44240;51.840;7.258;2024-02-21T01:35:51;10.70;79.80
58447;DHT22;44240;51.840;7.258;2024-02-21T01:38:18;10.70;79.80
58447;DHT22;44240;51.840;7.258;2024-02-21T01:40:45;10.70;79.70
58447;DHT22;44240;51.840;7.258;2024-02-21T01:43:17;10.80;79.80
58447;DHT22;44240;51.840;7.258;2024-02-21T01:45:48;10.70;79.70
58447;DHT22;44240;51.840;7.258;2024-02-21T01:48:17;10.70;79.60
58447;DHT22;44240;51.840;7.258;2024-02-21T01:50:49;10.80;79.30
58447;DHT22;44240;51.840;7.258;2024-02-21T01:53:21;10.80;79.40
58447;DHT22;44240;51.840;7.258;2024-02-21T01:55:49;10.70;79.40
58447;DHT22;44240;51.840;7.258;2024-02-21T01:58:16;10.80;79.40
58447;DHT22;44240;51.840;7.258;2024-02-21T02:00:45;10.80;79.20
58447;DHT22;44240;51.840;7.258;2024-02-21T02:03:13;10.80;79.20
58447;DHT22;44240;51.840;7.258;2024-02-21T02:05:45;10.80;79.20
58447;DHT22;44240;51.840;7.258;2024-02-21T02:08:14;10.80;79.30
58447;DHT22;44240;51.840;7.258;2024-02-21T02:10:41;10.80;78.90
58447;DHT22;44240;51.840;7.258;2024-02-21T02:13:09;10.90;78.90
58447;DHT22;44240;51.840;7.258;2024-02-21T02:15:45;10.80;79.00
58447;DHT22;44240;51.840;7.258;2024-02-21T02:18:12;10.80;79.10
58447;DHT22;44240;51.840;7.258;2024-02-21T02:20:40;10.80;79.10
58447;DHT22;44240;51.840;7.258;2024-02-21T02:23:10;10.80;79.10
58447;DHT22;44240;51.840;7.258;2024-02-21T02:25:37;10.80;79.00
58447;DHT22;44240;51.840;7.258;2024-02-21T02:28:08;10.80;79.00
58447;DHT22;44240;51.840;7.258;2024-02-21T02:30:35;10.80;79.10
58447;DHT22;44240;51.840;7.258;2024-02-21T02:33:06;10.80;79.10
58447;DHT22;44240;51.840;7.258;2024-02-21T02:35:33;10.80;79.20
58447;DHT22;44240;51.840;7.258;2024-02-21T02:38:03;10.80;78.70
58447;DHT22;44240;51.840;7.258;2024-02-21T02:40:31;10.80;78.70
58447;DHT22;44240;51.840;7.258;2024-02-21T02:42:58;10.80;78.80
58447;DHT22;44240;51.840;7.258;2024-02-21T02:45:25;10.80;78.70
58447;DHT22;44240;51.840;7.258;2024-02-21T02:47:53;10.80;78.70
58447;DHT22;44240;51.840;7.258;2024-02-21T02:50:24;10.80;78.70
58447;DHT22;44240;51.840;7.258;2024-02-21T02:52:52;10.80;78.60
58447;DHT22;44240;51.840;7.258;2024-02-21T02:55:19;10.80;78.70
58447;DHT22;44240;51.840;7.258;2024-02-21T02:57:46;10.80;78.60
58447;DHT22;44240;51.840;7.258;2024-02-21T03:00:14;10.80;78.60
58447;DHT22;44240;51.840;7.258;2024-02-21T03:02:43;10.80;78.60
58447;DHT22;44240;51.840;7.258;2024-02-21T03:05:16;10.70;78.70
58447;DHT22;44240;51.840;7.258;2024-02-21T03:07:43;10.80;78.70
58447;DHT22;44240;51.840;7.258;2024-02-21T03:10:11;10.80;78.70
58447;DHT22;44240;51.840;7.258;2024-02-21T03:12:39;10.70;78.60
58447;DHT22;44240;51.840;7.258;2024-02-21T03:15:06;10.70;78.60
58447;DHT22;44240;51.840;7.258;2024-02-21T03:17:33;10.80;78.60
58447;DHT22;44240;51.840;7.258;2024-02-21T03:20:04;10.80;78.70
58447;DHT22;44240;51.840;7.258;2024-02-21T03:22:37;10.80;78.60
58447;DHT22;44240;51.840;7.258;2024-02-21T03:25:04;10.80;78.60
58447;DHT22;44240;51.840;7.258;2024-02-21T03:27:31;10.80;78.70
58447;DHT22;44240;51.840;7.258;2024-02-21T03:29:58;10.80;78.30
58447;DHT22;44240;51.840;7.258;2024-02-21T03:32:25;10.70;78.40
58447;DHT22;44240;51.840;7.258;2024-02-21T03:34:52;10.80;78.30
58447;DHT22;44240;51.840;7.258;2024-02-21T03:37:19;10.80;78.30
58447;DHT22;44240;51.840;7.258;2024-02-21T03:39:46;10.80;78.10
58447;DHT22;44240;51.840;7.258;2024-02-21T03:42:13;10.80;78.10
58447;DHT22;44240;51.840;7.258;2024-02-21T03:44:40;10.80;78.10
58447;DHT22;44240;51.840;7.258;2024-02-21T03:47:07;10.80;78.10
58447;DHT22;44240;51.840;7.258;2024-02-21T03:49:37;10.90;78.70
58447;DHT22;44240;51.840;7.258;2024-02-21T03:52:04;10.80;77.80
58447;DHT22;44240;51.840;7.258;2024-02-21T03:54:31;10.80;77.70
58447;DHT22;44240;51.840;7.258;2024-02-21T03:56:58;10.80;77.80
58447;DHT22;44240;51.840;7.258;2024-02-21T03:59:25;10.80;77.70
58447;DHT22;44240;51.840;7.258;2024-02-21T04:01:52;10.80;77.70
58447;DHT22;44240;51.840;7.258;2024-02-21T04:04:20;10.80;77.70
58447;DHT22;44240;51.840;7.258;2024-02-21T04:06:51;10.80;77.60
58447;DHT22;44240;51.840;7.258;2024-02-21T04:09:18;10.80;77.60
58447;DHT22;44240;51.840;7.258;2024-02-21T04:11:45;10.80;77.70
58447;DHT22;44240;51.840;7.258;2024-02-21T04:14:12;10.80;77.70
58447;DHT22;44240;51.840;7.258;2024-02-21T04:16:39;10.80;77.60
58447;DHT22;44240;51.840;7.258;2024-02-21T04:19:07;10.80;77.70
58447;DHT22;44240;51.840;7.258;2024-02-21T04:21:35;10.80;77.70
58447;DHT22;44240;51.840;7.258;2024-02-21T04:24:02;10.80;77.80
58447;DHT22;44240;51.840;7.258;2024-02-21T04:26:32;10.80;77.60
58447;DHT22;44240;51.840;7.258;2024-02-21T04:28:59;10.80;77.70
58447;DHT22;44240;51.840;7.258;2024-02-21T04:31:26;10.80;77.70
58447;DHT22;44240;51.840;7.258;2024-02-21T04:33:53;10.80;77.50
58447;DHT22;44240;51.840;7.258;2024-02-21T04:36:20;10.80;77.50
58447;DHT22;44240;51.840;7.258;2024-02-21T04:38:47;10.80;77.40
58447;DHT22;44240;51.840;7.258;2024-02-21T04:41:14;10.80;77.60
58447;DHT22;44240;51.840;7.258;2024-02-21T04:43:40;10.80;77.60
58447;DHT22;44240;51.840;7.258;2024-02-21T04:46:07;10.80;77.50
58447;DHT22;44240;51.840;7.258;2024-02-21T04:48:34;10.80;77.60
58447;DHT22;44240;51.840;7.258;2024-02-21T04:51:01;10.90;77.60
58447;DHT22;44240;51.840;7.258;2024-02-21T04:53:28;10.80;77.50
58447;DHT22;44240;51.840;7.258;2024-02-21T04:55:55;10.80;77.50
58447;DHT22;44240;51.840;7.258;2024-02-21T04:58:22;10.90;77.40
58447;DHT22;44240;51.840;7.258;2024-02-21T05:00:49;10.90;77.40
58447;DHT22;44240;51.840;7.258;2024-02-21T05:03:15;10.90;77.50
58447;DHT22;44240;51.840;7.258;2024-02-21T05:05:42;10.90;77.50
58447;DHT22;44240;51.840;7.258;2024-02-21T05:08:10;10.90;77.50
58447;DHT22;44240;51.840;7.258;2024-02-21T05:10:37;10.90;77.70
58447;DHT22;44240;51.840;7.258;2024-02-21T05:13:04;10.90;77.60
58447;DHT22;44240;51.840;7.258;2024-02-21T05:15:31;10.90;77.60
58447;DHT22;44240;51.840;7.258;2024-02-21T05:17:58;10.90;77.40
58447;DHT22;44240;51.840;7.258;2024-02-21T05:20:25;10.90;77.30
58447;DHT22;44240;51.840;7.258;2024-02-21T05:22:52;10.90;77.40
58447;DHT22;44240;51.840;7.258;2024-02-21T05:25:19;10.90;77.30
58447;DHT22;44240;51.840;7.258;2024-02-21T05:27:46;10.90;77.20
58447;DHT22;44240;51.840;7.258;2024-02-21T05:30:12;10.90;77.20
58447;DHT22;44240;51.840;7.258;2024-02-21T05:32:39;10.90;77.20
58447;DHT22;44240;51.840;7.258;2024-02-21T05:35:07;10.90;77.30
58447;DHT22;44240;51.840;7.258;2024-02-21T05:37:34;10.90;77.40
58447;DHT22;44240;51.840;7.258;2024-02-21T05:40:01;10.90;77.30
58447;DHT22;44240;51.840;7.258;2024-02-21T05:42:27;10.80;77.30
58447;DHT22;44240;51.840;7.258;2024-02-21T05:44:54;10.90;77.30
58447;DHT22;44240;51.840;7.258;2024-02-21T05:47:21;10.90;77.30
58447;DHT22;44240;51.840;7.258;2024-02-21T05:49:48;10.90;77.40
58447;DHT22;44240;51.840;7.258;2024-02-21T05:52:15;10.90;77.30
58447;DHT22;44240;51.840;7.258;2024-02-21T05:54:42;10.90;77.20
58447;DHT22;44240;51.840;7.258;2024-02-21T05:57:09;10.80;77.10
58447;DHT22;44240;51.840;7.258;2024-02-21T05:59:38;10.90;77.00
58447;DHT22;44240;51.840;7.258;2024-02-21T06:02:06;10.90;76.90
58447;DHT22;44240;51.840;7.258;2024-02-21T06:04:33;10.80;77.00
58447;DHT22;44240;51.840;7.258;2024-02-21T06:07:01;10.90;77.20
58447;DHT22;44240;51.840;7.258;2024-02-21T06:09:28;10.90;77.20
58447;DHT22;44240;51.840;7.258;2024-02-21T06:11:55;10.90;77.10
58447;DHT22;44240;51.840;7.258;2024-02-21T06:14:22;10.90;77.10
58447;DHT22;44240;51.840;7.258;2024-02-21T06:16:49;10.90;77.00
58447;DHT22;44240;51.840;7.258;2024-02-21T06:19:16;10.90;76.90
58447;DHT22;44240;51.840;7.258;2024-02-21T06:21:43;10.90;77.00
58447;DHT22;44240;51.840;7.258;2024-02-21T06:24:10;10.90;76.90
58447;DHT22;44240;51.840;7.258;2024-02-21T06:26:36;10.90;76.80
58447;DHT22;44240;51.840;7.258;2024-02-21T06:29:03;10.90;76.80
58447;DHT22;44240;51.840;7.258;2024-02-21T06:31:30;10.90;76.80
58447;DHT22;44240;51.840;7.258;2024-02-21T06:33:58;10.90;76.90
58447;DHT22;44240;51.840;7.258;2024-02-21T06:36:25;10.90;77.00
58447;DHT22;44240;51.840;7.258;2024-02-21T06:38:52;10.90;76.80
58447;DHT22;44240;51.840;7.258;2024-02-21T06:41:19;10.80;76.70
58447;DHT22;44240;51.840;7.258;2024-02-21T06:43:46;10.90;76.60
58447;DHT22;44240;51.840;7.258;2024-02-21T06:46:24;10.90;76.60
58447;DHT22;44240;51.840;7.258;2024-02-21T06:48:51;10.80;76.50
58447;DHT22;44240;51.840;7.258;2024-02-21T06:51:18;10.80;76.60
58447;DHT22;44240;51.840;7.258;2024-02-21T06:53:45;10.80;76.70
58447;DHT22;44240;51.840;7.258;2024-02-21T06:56:12;10.80;76.70
58447;DHT22;44240;51.840;7.258;2024-02-21T06:58:39;10.80;76.70
58447;DHT22;44240;51.840;7.258;2024-02-21T07:01:06;10.90;76.60
58447;DHT22;44240;51.840;7.258;2024-02-21T07:03:33;10.80;76.60
58447;DHT22;44240;51.840;7.258;2024-02-21T07:06:00;10.90;76.70
58447;DHT22;44240;51.840;7.258;2024-02-21T07:08:27;10.80;76.70
58447;DHT22;44240;51.840;7.258;2024-02-21T07:10:54;10.80;76.70
58447;DHT22;44240;51.840;7.258;2024-02-21T07:13:21;10.90;76.80
58447;DHT22;44240;51.840;7.258;2024-02-21T07:15:49;10.90;76.80
58447;DHT22;44240;51.840;7.258;2024-02-21T07:18:16;10.90;76.70
58447;DHT22;44240;51.840;7.258;2024-02-21T07:20:44;10.90;76.60
58447;DHT22;44240;51.840;7.258;2024-02-21T07:23:10;10.90;76.70
58447;DHT22;44240;51.840;7.258;2024-02-21T07:25:38;10.90;76.60
58447;DHT22;44240;51.840;7.258;2024-02-21T07:28:05;10.90;76.70
58447;DHT22;44240;51.840;7.258;2024-02-21T07:30:33;10.90;76.60
58447;DHT22;44240;51.840;7.258;2024-02-21T07:33:00;11.00;76.70
58447;DHT22;44240;51.840;7.258;2024-02-21T07:35:27;10.90;76.70
58447;DHT22;44240;51.840;7.258;2024-02-21T07:37:54;10.90;76.50
58447;DHT22;44240;51.840;7.258;2024-02-21T07:40:20;10.90;76.60
58447;DHT22;44240;51.840;7.258;2024-02-21T07:42:47;11.00;76.60
58447;DHT22;44240;51.840;7.258;2024-02-21T07:45:17;10.90;76.60
58447;DHT22;44240;51.840;7.258;2024-02-21T07:47:50;11.00;76.60
58447;DHT22;44240;51.840;7.258;2024-02-21T07:50:17;11.00;76.40
58447;DHT22;44240;51.840;7.258;2024-02-21T07:52:44;11.00;76.30
58447;DHT22;44240;51.840;7.258;2024-02-21T07:55:11;11.00;76.00
58447;DHT22;44240;51.840;7.258;2024-02-21T07:57:38;11.00;76.20
58447;DHT22;44240;51.840;7.258;2024-02-21T08:00:05;11.00;76.30
58447;DHT22;44240;51.840;7.258;2024-02-21T08:02:38;11.00;76.10
58447;DHT22;44240;51.840;7.258;2024-02-21T08:05:05;11.00;76.10
58447;DHT22;44240;51.840;7.258;2024-02-21T08:07:32;11.10;76.20
58447;DHT22;44240;51.840;7.258;2024-02-21T08:09:58;11.10;75.90
58447;DHT22;44240;51.840;7.258;2024-02-21T08:12:25;11.10;75.80
58447;DHT22;44240;51.840;7.258;2024-02-21T08:14:53;11.10;75.50
58447;DHT22;44240;51.840;7.258;2024-02-21T08:17:20;11.10;75.70
58447;DHT22;44240;51.840;7.258;2024-02-21T08:19:47;11.10;75.80
58447;DHT22;44240;51.840;7.258;2024-02-21T08:22:16;11.10;75.50
58447;DHT22;44240;51.840;7.258;2024-02-21T08:24:43;11.10;75.30
58447;DHT22;44240;51.840;7.258;2024-02-21T08:27:09;11.10;75.30
58447;DHT22;44240;51.840;7.258;2024-02-21T08:29:36;11.10;75.00
58447;DHT22;44240;51.840;7.258;2024-02-21T08:32:03;11.20;75.10
58447;DHT22;44240;51.840;7.258;2024-02-21T08:34:30;11.20;75.10
58447;DHT22;44240;51.840;7.258;2024-02-21T08:37:00;11.20;75.10
58447;DHT22;44240;51.840;7.258;2024-02-21T08:39:27;11.20;75.00
58447;DHT22;44240;51.840;7.258;2024-02-21T08:41:56;11.20;74.90
58447;DHT22;44240;51.840;7.258;2024-02-21T08:44:24;11.30;74.80
58447;DHT22;44240;51.840;7.258;2024-02-21T08:46:53;11.30;74.70
58447;DHT22;44240;51.840;7.258;2024-02-21T08:49:20;11.30;74.80
58447;DHT22;44240;51.840;7.258;2024-02-21T08:51:47;11.30;74.60
58447;DHT22;44240;51.840;7.258;2024-02-21T08:54:14;11.30;74.70
58447;DHT22;44240;51.840;7.258;2024-02-21T08:56:41;11.30;74.20
58447;DHT22;44240;51.840;7.258;2024-02-21T08:59:08;11.30;74.20
58447;DHT22;44240;51.840;7.258;2024-02-21T09:01:35;11.40;74.00
58447;DHT22;44240;51.840;7.258;2024-02-21T09:04:02;11.40;73.90
58447;DHT22;44240;51.840;7.258;2024-02-21T09:06:30;11.40;73.70
58447;DHT22;44240;51.840;7.258;2024-02-21T09:08:59;11.40;73.90
58447;DHT22;44240;51.840;7.258;2024-02-21T09:11:25;11.40;74.10
58447;DHT22;44240;51.840;7.258;2024-02-21T09:13:54;11.40;73.90
58447;DHT22;44240;51.840;7.258;2024-02-21T09:16:21;11.50;73.80
58447;DHT22;44240;51.840;7.258;2024-02-21T09:18:49;11.50;73.60
58447;DHT22;44240;51.840;7.258;2024-02-21T09:21:16;11.60;73.30
58447;DHT22;44240;51.840;7.258;2024-02-21T09:23:44;11.60;73.10
58447;DHT22;44240;51.840;7.258;2024-02-21T09:26:11;11.60;73.00
58447;DHT22;44240;51.840;7.258;2024-02-21T09:28:43;11.60;72.70
58447;DHT22;44240;51.840;7.258;2024-02-21T09:31:11;11.60;72.20
58447;DHT22;44240;51.840;7.258;2024-02-21T09:33:37;11.60;72.40
58447;DHT22;44240;51.840;7.258;2024-02-21T09:36:05;11.70;72.50
58447;DHT22;44240;51.840;7.258;2024-02-21T09:38:32;11.70;72.00
58447;DHT22;44240;51.840;7.258;2024-02-21T09:41:03;11.70;71.80
58447;DHT22;44240;51.840;7.258;2024-02-21T09:43:31;11.70;71.80
58447;DHT22;44240;51.840;7.258;2024-02-21T09:46:00;11.70;71.30
58447;DHT22;44240;51.840;7.258;2024-02-21T09:48:39;11.70;71.40
58447;DHT22;44240;51.840;7.258;2024-02-21T09:51:10;11.70;71.50
58447;DHT22;44240;51.840;7.258;2024-02-21T09:53:38;11.70;72.80
58447;DHT22;44240;51.840;7.258;2024-02-21T09:56:10;11.70;71.80
58447;DHT22;44240;51.840;7.258;2024-02-21T09:58:41;11.70;72.00
58447;DHT22;44240;51.840;7.258;2024-02-21T10:01:08;11.70;72.10
58447;DHT22;44240;51.840;7.258;2024-02-21T10:03:51;11.80;71.20
58447;DHT22;44240;51.840;7.258;2024-02-21T10:06:20;11.80;70.80
58447;DHT22;44240;51.840;7.258;2024-02-21T10:08:56;11.80;70.00
58447;DHT22;44240;51.840;7.258;2024-02-21T10:11:23;11.70;70.50
58447;DHT22;44240;51.840;7.258;2024-02-21T10:13:51;11.70;70.90
58447;DHT22;44240;51.840;7.258;2024-02-21T10:16:29;11.70;70.90
58447;DHT22;44240;51.840;7.258;2024-02-21T10:18:55;11.70;70.60
58447;DHT22;44240;51.840;7.258;2024-02-21T10:21:22;11.70;70.90
58447;DHT22;44240;51.840;7.258;2024-02-21T10:23:50;11.70;70.90
58447;DHT22;44240;51.840;7.258;2024-02-21T10:26:20;11.60;71.30
58447;DHT22;44240;51.840;7.258;2024-02-21T10:28:48;11.70;71.30
58447;DHT22;44240;51.840;7.258;2024-02-21T10:31:25;11.70;71.30
58447;DHT22;44240;51.840;7.258;2024-02-21T10:34:02;11.70;71.50
58447;DHT22;44240;51.840;7.258;2024-02-21T10:36:32;11.70;71.50
58447;DHT22;44240;51.840;7.258;2024-02-21T10:38:59;11.80;71.20
58447;DHT22;44240;51.840;7.258;2024-02-21T10:41:26;11.80;70.70
58447;DHT22;44240;51.840;7.258;2024-02-21T10:43:55;11.80;70.90
58447;DHT22;44240;51.840;7.258;2024-02-21T10:46:24;11.80;70.60
58447;DHT22;44240;51.840;7.258;2024-02-21T10:49:03;11.80;71.00
58447;DHT22;44240;51.840;7.258;2024-02-21T10:51:34;11.90;71.10
58447;DHT22;44240;51.840;7.258;2024-02-21T10:56:38;11.90;70.40
58447;DHT22;44240;51.840;7.258;2024-02-21T10:59:07;11.90;70.10
58447;DHT22;44240;51.840;7.258;2024-02-21T11:01:34;11.90;70.10
58447;DHT22;44240;51.840;7.258;2024-02-21T11:04:10;11.80;70.50
58447;DHT22;44240;51.840;7.258;2024-02-21T11:06:40;11.70;70.80
58447;DHT22;44240;51.840;7.258;2024-02-21T11:09:10;11.70;70.90
58447;DHT22;44240;51.840;7.258;2024-02-21T11:11:42;11.70;71.00
58447;DHT22;44240;51.840;7.258;2024-02-21T11:16:43;11.70;70.80
58447;DHT22;44240;51.840;7.258;2024-02-21T11:19:24;11.70;70.80
58447;DHT22;44240;51.840;7.258;2024-02-21T11:21:52;11.70;70.90
58447;DHT22;44240;51.840;7.258;2024-02-21T11:24:30;11.70;71.00
58447;DHT22;44240;51.840;7.258;2024-02-21T11:29:45;11.80;71.20
58447;DHT22;44240;51.840;7.258;2024-02-21T11:32:19;11.80;71.00
58447;DHT22;44240;51.840;7.258;2024-02-21T11:35:19;11.80;71.00
58447;DHT22;44240;51.840;7.258;2024-02-21T11:37:46;11.80;70.50
58447;DHT22;44240;51.840;7.258;2024-02-21T11:40:13;11.90;70.60
58447;DHT22;44240;51.840;7.258;2024-02-21T11:42:40;11.90;70.40
58447;DHT22;44240;51.840;7.258;2024-02-21T11:45:08;11.90;70.70
58447;DHT22;44240;51.840;7.258;2024-02-21T11:47:37;11.90;70.60
58447;DHT22;44240;51.840;7.258;2024-02-21T11:50:12;11.90;70.60
58447;DHT22;44240;51.840;7.258;2024-02-21T11:52:42;11.90;70.30
58447;DHT22;44240;51.840;7.258;2024-02-21T11:55:09;11.90;70.00
58447;DHT22;44240;51.840;7.258;2024-02-21T11:57:37;11.90;69.90
58447;DHT22;44240;51.840;7.258;2024-02-21T12:00:17;12.00;69.90
58447;DHT22;44240;51.840;7.258;2024-02-21T12:02:44;11.90;69.80
58447;DHT22;44240;51.840;7.258;2024-02-21T12:05:12;12.00;69.80
58447;DHT22;44240;51.840;7.258;2024-02-21T12:07:41;12.00;69.80
58447;DHT22;44240;51.840;7.258;2024-02-21T12:10:09;12.00;69.70
58447;DHT22;44240;51.840;7.258;2024-02-21T12:12:39;12.10;69.60
58447;DHT22;44240;51.840;7.258;2024-02-21T12:15:07;12.10;69.40
58447;DHT22;44240;51.840;7.258;2024-02-21T12:17:36;12.10;69.40
58447;DHT22;44240;51.840;7.258;2024-02-21T12:20:04;12.20;69.40
58447;DHT22;44240;51.840;7.258;2024-02-21T12:22:38;12.20;69.20
58447;DHT22;44240;51.840;7.258;2024-02-21T12:25:22;12.30;68.90
58447;DHT22;44240;51.840;7.258;2024-02-21T12:27:50;12.40;68.70
58447;DHT22;44240;51.840;7.258;2024-02-21T12:30:16;12.40;68.50
58447;DHT22;44240;51.840;7.258;2024-02-21T12:32:43;12.50;68.40
58447;DHT22;44240;51.840;7.258;2024-02-21T12:35:11;12.50;68.30
58447;DHT22;44240;51.840;7.258;2024-02-21T12:37:38;12.60;67.70
58447;DHT22;44240;51.840;7.258;2024-02-21T12:40:07;12.60;68.80
58447;DHT22;44240;51.840;7.258;2024-02-21T12:42:34;12.60;67.90
58447;DHT22;44240;51.840;7.258;2024-02-21T12:45:02;12.60;67.80
58447;DHT22;44240;51.840;7.258;2024-02-21T12:47:30;12.70;67.80
58447;DHT22;44240;51.840;7.258;2024-02-21T12:49:57;12.70;67.60
58447;DHT22;44240;51.840;7.258;2024-02-21T12:52:24;12.70;66.70
58447;DHT22;44240;51.840;7.258;2024-02-21T12:54:51;12.70;66.90
58447;DHT22;44240;51.840;7.258;2024-02-21T12:57:18;12.70;66.80
58447;DHT22;44240;51.840;7.258;2024-02-21T12:59:45;12.70;66.90
58447;DHT22;44240;51.840;7.258;2024-02-21T13:02:12;12.70;66.80
58447;DHT22;44240;51.840;7.258;2024-02-21T13:04:39;12.70;67.00
58447;DHT22;44240;51.840;7.258;2024-02-21T13:07:08;12.80;67.10
58447;DHT22;44240;51.840;7.258;2024-02-21T13:09:34;12.80;67.00
58447;DHT22;44240;51.840;7.258;2024-02-21T13:12:02;12.80;67.00
58447;DHT22;44240;51.840;7.258;2024-02-21T13:14:29;12.80;66.80
58447;DHT22;44240;51.840;7.258;2024-02-21T13:16:56;12.90;66.30
58447;DHT22;44240;51.840;7.258;2024-02-21T13:19:23;12.90;67.30
58447;DHT22;44240;51.840;7.258;2024-02-21T13:21:51;12.90;65.90
58447;DHT22;44240;51.840;7.258;2024-02-21T13:24:18;12.90;65.40
58447;DHT22;44240;51.840;7.258;2024-02-21T13:26:45;12.90;65.00
58447;DHT22;44240;51.840;7.258;2024-02-21T13:29:11;12.80;64.70
58447;DHT22;44240;51.840;7.258;2024-02-21T13:31:38;12.80;64.90
58447;DHT22;44240;51.840;7.258;2024-02-21T13:34:05;12.80;65.10
58447;DHT22;44240;51.840;7.258;2024-02-21T13:36:35;12.90;64.60
58447;DHT22;44240;51.840;7.258;2024-02-21T13:39:02;12.90;64.70
58447;DHT22;44240;51.840;7.258;2024-02-21T13:41:31;12.90;64.80
58447;DHT22;44240;51.840;7.258;2024-02-21T13:43:58;12.90;64.70
58447;DHT22;44240;51.840;7.258;2024-02-21T13:46:27;13.00;64.70
58447;DHT22;44240;51.840;7.258;2024-02-21T13:49:03;13.00;65.00
58447;DHT22;44240;51.840;7.258;2024-02-21T13:51:34;13.10;65.20
58447;DHT22;44240;51.840;7.258;2024-02-21T13:54:03;13.10;65.20
58447;DHT22;44240;51.840;7.258;2024-02-21T13:56:31;13.20;65.10
58447;DHT22;44240;51.840;7.258;2024-02-21T13:58:58;13.20;65.10
58447;DHT22;44240;51.840;7.258;2024-02-21T14:01:26;13.20;65.10
58447;DHT22;44240;51.840;7.258;2024-02-21T14:03:55;13.30;65.00
58447;DHT22;44240;51.840;7.258;2024-02-21T14:06:21;13.20;64.40
58447;DHT22;44240;51.840;7.258;2024-02-21T14:08:48;13.30;64.10
58447;DHT22;44240;51.840;7.258;2024-02-21T14:11:15;13.20;64.90
58447;DHT22;44240;51.840;7.258;2024-02-21T14:13:42;13.20;63.60
58447;DHT22;44240;51.840;7.258;2024-02-21T14:16:10;13.20;63.20
58447;DHT22;44240;51.840;7.258;2024-02-21T14:18:40;13.10;62.70
58447;DHT22;44240;51.840;7.258;2024-02-21T14:21:11;13.10;62.60
58447;DHT22;44240;51.840;7.258;2024-02-21T14:23:38;13.10;62.40
58447;DHT22;44240;51.840;7.258;2024-02-21T14:26:05;13.10;62.70
58447;DHT22;44240;51.840;7.258;2024-02-21T14:28:33;13.10;62.60
58447;DHT22;44240;51.840;7.258;2024-02-21T14:31:03;13.10;62.20
58447;DHT22;44240;51.840;7.258;2024-02-21T14:33:33;13.20;62.40
58447;DHT22;44240;51.840;7.258;2024-02-21T14:36:00;13.20;62.30
58447;DHT22;44240;51.840;7.258;2024-02-21T14:38:27;13.20;62.70
58447;DHT22;44240;51.840;7.258;2024-02-21T14:40:54;13.20;62.40
58447;DHT22;44240;51.840;7.258;2024-02-21T14:43:22;13.20;62.40
58447;DHT22;44240;51.840;7.258;2024-02-21T14:45:49;13.20;62.60
58447;DHT22;44240;51.840;7.258;2024-02-21T14:48:16;13.20;62.90
58447;DHT22;44240;51.840;7.258;2024-02-21T14:50:43;13.20;62.90
58447;DHT22;44240;51.840;7.258;2024-02-21T14:53:10;13.30;62.80
58447;DHT22;44240;51.840;7.258;2024-02-21T14:55:37;13.20;62.80
58447;DHT22;44240;51.840;7.258;2024-02-21T14:58:10;13.20;62.60
58447;DHT22;44240;51.840;7.258;2024-02-21T15:00:37;13.20;62.70
58447;DHT22;44240;51.840;7.258;2024-02-21T15:03:05;13.20;62.70
58447;DHT22;44240;51.840;7.258;2024-02-21T15:05:32;13.20;62.60
58447;DHT22;44240;51.840;7.258;2024-02-21T15:08:00;13.20;62.20
58447;DHT22;44240;51.840;7.258;2024-02-21T15:10:27;13.10;62.00
58447;DHT22;44240;51.840;7.258;2024-02-21T15:12:55;13.10;62.20
58447;DHT22;44240;51.840;7.258;2024-02-21T15:15:22;13.10;62.00
58447;DHT22;44240;51.840;7.258;2024-02-21T15:17:49;13.10;62.30
58447;DHT22;44240;51.840;7.258;2024-02-21T15:20:17;13.10;62.50
58447;DHT22;44240;51.840;7.258;2024-02-21T15:22:44;13.10;62.20
58447;DHT22;44240;51.840;7.258;2024-02-21T15:25:11;13.00;62.30
58447;DHT22;44240;51.840;7.258;2024-02-21T15:27:45;13.00;62.40
58447;DHT22;44240;51.840;7.258;2024-02-21T15:30:12;13.00;62.70
58447;DHT22;44240;51.840;7.258;2024-02-21T15:32:40;13.00;62.60
58447;DHT22;44240;51.840;7.258;2024-02-21T15:35:10;13.00;62.60
58447;DHT22;44240;51.840;7.258;2024-02-21T15:37:37;13.00;62.70
58447;DHT22;44240;51.840;7.258;2024-02-21T15:40:05;12.90;62.70
58447;DHT22;44240;51.840;7.258;2024-02-21T15:42:34;12.90;62.70